createdAt,value
2018-05-25T00:01:34.103Z,15.35
2018-05-25T00:04:00.142Z,15.37
2018-05-25T00:06:26.097Z,15.40
2018-05-25T00:08:52.180Z,15.39
2018-05-25T00:11:18.125Z,15.46
2018-05-25T00:13:44.264Z,15.50
2018-05-25T00:16:10.159Z,15.48
2018-05-25T00:18:36.116Z,15.48
2018-05-25T00:21:02.099Z,15.55
2018-05-25T00:23:28.029Z,15.60
2018-05-25T00:25:54.027Z,15.73
2018-05-25T00:28:19.988Z,15.68
2018-05-25T00:30:45.896Z,15.71
2018-05-25T00:33:11.900Z,15.72
2018-05-25T00:35:37.809Z,15.70
2018-05-25T00:38:07.633Z,15.75
2018-05-25T00:40:36.272Z,15.74
2018-05-25T00:43:02.217Z,15.72
2018-05-25T00:45:28.142Z,15.71
2018-05-25T00:47:54.173Z,15.75
2018-05-25T00:50:20.173Z,15.75
2018-05-25T00:52:46.088Z,15.74
2018-05-25T00:55:24.488Z,15.70
2018-05-25T00:57:50.468Z,15.77
2018-05-25T01:00:16.391Z,15.74
2018-05-25T01:02:42.367Z,15.78
2018-05-25T01:05:08.296Z,15.70
2018-05-25T01:07:34.547Z,15.67
2018-05-25T01:10:00.673Z,15.61
2018-05-25T01:12:26.610Z,15.68
2018-05-25T01:14:52.576Z,15.73
2018-05-25T01:17:18.559Z,15.72
2018-05-25T01:19:44.575Z,15.72
2018-05-25T01:22:11.579Z,15.62
2018-05-25T01:24:38.143Z,15.72
2018-05-25T01:27:04.182Z,15.67
2018-05-25T01:29:30.198Z,15.65
2018-05-25T01:31:56.224Z,15.57
2018-05-25T01:34:22.219Z,15.49
2018-05-25T01:36:48.179Z,15.50
2018-05-25T01:39:14.145Z,15.44
2018-05-25T01:41:40.947Z,15.44
2018-05-25T01:44:06.871Z,15.42
2018-05-25T01:46:33.167Z,15.35
2018-05-25T01:48:59.069Z,15.33
2018-05-25T01:51:25.019Z,15.34
2018-05-25T01:53:51.191Z,15.31
2018-05-25T01:56:17.096Z,15.25
2018-05-25T01:58:43.007Z,15.27
2018-05-25T02:01:10.043Z,15.21
2018-05-25T02:03:36.128Z,15.09
2018-05-25T02:06:02.142Z,15.00
2018-05-25T02:08:28.092Z,15.01
2018-05-25T02:10:54.019Z,14.94
2018-05-25T02:13:19.991Z,14.95
2018-05-25T02:15:45.948Z,15.07
2018-05-25T02:18:11.938Z,15.06
2018-05-25T02:20:37.871Z,15.03
2018-05-25T02:23:03.821Z,15.07
2018-05-25T02:25:30.134Z,15.03
2018-05-25T02:27:56.179Z,15.06
2018-05-25T02:30:22.251Z,15.11
2018-05-25T02:32:48.159Z,15.08
2018-05-25T02:35:14.096Z,14.99
2018-05-25T02:37:52.269Z,14.92
2018-05-25T02:40:18.172Z,14.98
2018-05-25T02:42:44.238Z,14.93
2018-05-25T02:45:10.538Z,14.85
2018-05-25T02:47:36.495Z,14.96
2018-05-25T02:50:02.411Z,14.90
2018-05-25T02:52:28.399Z,14.86
2018-05-25T02:54:54.461Z,14.89
2018-05-25T02:57:20.491Z,14.84
2018-05-25T02:59:46.467Z,14.89
2018-05-25T03:02:12.404Z,14.86
2018-05-25T03:04:38.306Z,14.87
2018-05-25T03:07:04.446Z,14.85
2018-05-25T03:09:30.415Z,14.92
2018-05-25T03:11:56.399Z,14.86
2018-05-25T03:14:22.419Z,14.85
2018-05-25T03:16:48.340Z,14.83
2018-05-25T03:19:14.311Z,14.83
2018-05-25T03:21:40.365Z,14.82
2018-05-25T03:24:06.361Z,14.75
2018-05-25T03:26:32.271Z,14.75
2018-05-25T03:28:58.315Z,14.73
2018-05-25T03:31:24.422Z,14.69
2018-05-25T03:33:50.496Z,14.71
2018-05-25T03:36:21.552Z,14.69
2018-05-25T03:38:47.495Z,14.72
2018-05-25T03:41:13.438Z,14.64
2018-05-25T03:43:39.579Z,14.70
2018-05-25T03:46:05.481Z,14.71
2018-05-25T03:48:31.448Z,14.70
2018-05-25T03:50:57.771Z,14.68
2018-05-25T03:53:23.797Z,14.75
2018-05-25T03:55:49.825Z,14.71
2018-05-25T03:58:15.808Z,14.79
2018-05-25T04:00:54.064Z,14.82
2018-05-25T04:03:20.059Z,14.80
2018-05-25T04:05:46.031Z,14.80
2018-05-25T04:08:12.040Z,14.88
2018-05-25T04:10:38.031Z,14.92
2018-05-25T04:13:03.942Z,14.99
2018-05-25T04:15:30.976Z,15.10
2018-05-25T04:17:57.188Z,15.13
2018-05-25T04:20:23.242Z,15.23
2018-05-25T04:22:49.176Z,15.26
2018-05-25T04:25:21.366Z,15.34
2018-05-25T04:27:47.312Z,15.34
2018-05-25T04:30:13.290Z,15.37
2018-05-25T04:32:40.285Z,15.49
2018-05-25T04:35:06.184Z,15.54
2018-05-25T04:37:32.100Z,15.57
2018-05-25T04:39:58.094Z,15.66
2018-05-25T04:42:24.107Z,15.72
2018-05-25T04:44:50.263Z,15.76
2018-05-25T04:47:16.216Z,15.91
2018-05-25T04:49:42.347Z,16.01
2018-05-25T04:52:08.309Z,16.04
2018-05-25T04:54:34.383Z,16.09
2018-05-25T04:57:00.377Z,16.20
2018-05-25T04:59:26.399Z,16.33
2018-05-25T05:01:52.512Z,16.38
2018-05-25T05:04:18.476Z,16.53
2018-05-25T05:06:44.616Z,16.65
2018-05-25T05:09:10.699Z,16.80
2018-05-25T05:11:36.666Z,16.91
2018-05-25T05:14:02.621Z,17.01
2018-05-25T05:16:28.630Z,17.11
2018-05-25T05:18:54.613Z,17.23
2018-05-25T05:21:20.704Z,17.30
2018-05-25T05:23:46.962Z,17.40
2018-05-25T05:26:12.879Z,17.56
2018-05-25T05:28:38.804Z,17.61
2018-05-25T05:31:07.943Z,17.68
2018-05-25T05:33:39.607Z,17.72
2018-05-25T05:36:08.335Z,17.86
2018-05-25T05:38:43.409Z,18.01
2018-05-25T05:41:09.948Z,18.02
2018-05-25T05:43:35.940Z,18.13
2018-05-25T05:46:02.032Z,18.28
2018-05-25T05:48:28.157Z,18.37
2018-05-25T05:50:54.174Z,18.31
2018-05-25T05:53:20.201Z,18.46
2018-05-25T05:55:49.388Z,18.60
2018-05-25T05:58:15.336Z,18.68
2018-05-25T06:00:41.340Z,18.80
2018-05-25T06:03:07.533Z,18.84
2018-05-25T06:05:33.459Z,18.97
2018-05-25T06:07:59.549Z,19.06
2018-05-25T06:10:25.530Z,19.13
2018-05-25T06:12:51.532Z,19.21
2018-05-25T06:15:17.466Z,19.26
2018-05-25T06:17:43.439Z,19.29
2018-05-25T06:20:09.432Z,19.45
2018-05-25T06:22:36.652Z,19.44
2018-05-25T06:25:02.965Z,19.66
2018-05-25T06:27:28.935Z,19.67
2018-05-25T06:29:54.893Z,19.71
2018-05-25T06:32:21.008Z,19.82
2018-05-25T06:34:46.986Z,19.94
2018-05-25T06:37:12.865Z,20.12
2018-05-25T06:39:39.004Z,20.36
2018-05-25T06:42:05.116Z,20.47
2018-05-25T06:44:31.129Z,20.64
2018-05-25T06:46:57.153Z,20.73
2018-05-25T06:49:23.217Z,20.89
2018-05-25T06:51:49.135Z,20.91
2018-05-25T06:54:15.101Z,21.02
2018-05-25T06:56:41.099Z,21.19
2018-05-25T06:59:06.992Z,21.19
2018-05-25T07:01:36.370Z,21.26
2018-05-25T07:04:10.361Z,21.55
2018-05-25T07:06:40.339Z,21.53
2018-05-25T07:09:10.035Z,21.57
2018-05-25T07:11:35.948Z,21.77
2018-05-25T07:14:10.180Z,21.94
2018-05-25T07:16:40.167Z,22.10
2018-05-25T07:19:06.792Z,22.22
2018-05-25T07:21:32.756Z,22.38
2018-05-25T07:23:58.767Z,22.40
2018-05-25T07:26:24.799Z,22.52
2018-05-25T07:28:50.903Z,22.69
2018-05-25T07:31:16.947Z,22.67
2018-05-25T07:33:43.568Z,22.64
2018-05-25T07:36:09.635Z,22.90
2018-05-25T07:38:35.840Z,23.19
2018-05-25T07:41:02.069Z,23.48
2018-05-25T07:43:28.156Z,23.23
2018-05-25T07:45:54.142Z,23.48
2018-05-25T07:48:20.373Z,23.79
2018-05-25T07:50:46.649Z,23.89
2018-05-25T07:53:14.078Z,23.84
2018-05-25T07:55:41.281Z,23.89
2018-05-25T07:58:07.392Z,24.18
2018-05-25T08:00:33.326Z,24.60
2018-05-25T08:02:59.414Z,24.63
2018-05-25T08:05:25.555Z,25.09
2018-05-25T08:07:51.699Z,24.63
2018-05-25T08:10:17.936Z,24.18
2018-05-25T08:12:44.726Z,24.42
2018-05-25T08:15:10.711Z,24.98
2018-05-25T08:17:41.077Z,24.94
2018-05-25T08:20:09.394Z,25.25
2018-05-25T08:22:38.636Z,25.36
2018-05-25T08:25:04.633Z,24.93
2018-05-25T08:27:30.763Z,25.30
2018-05-25T08:29:56.987Z,25.60
2018-05-25T08:32:23.145Z,26.11
2018-05-25T08:34:49.738Z,25.91
2018-05-25T08:37:18.612Z,25.91
2018-05-25T08:39:44.836Z,26.49
2018-05-25T08:42:10.919Z,26.44
2018-05-25T08:44:37.258Z,26.39
2018-05-25T08:47:06.127Z,26.15
2018-05-25T08:49:33.207Z,26.65
2018-05-25T08:52:00.098Z,26.87
2018-05-25T08:54:26.117Z,26.66
2018-05-25T08:56:52.303Z,26.30
2018-05-25T08:59:18.465Z,26.45
2018-05-25T09:01:44.563Z,26.79
2018-05-25T09:04:10.679Z,26.39
2018-05-25T09:06:36.668Z,27.02
2018-05-25T09:09:02.775Z,27.33
2018-05-25T09:11:28.792Z,27.13
2018-05-25T09:13:54.810Z,27.40
2018-05-25T09:16:20.906Z,27.26
2018-05-25T09:18:48.230Z,27.57
2018-05-25T09:21:14.233Z,27.52
2018-05-25T09:23:40.167Z,27.79
2018-05-25T09:26:09.640Z,28.37
2018-05-25T09:28:36.513Z,28.47
2018-05-25T09:31:02.578Z,27.92
2018-05-25T09:33:28.787Z,28.01
2018-05-25T09:35:54.885Z,28.69
2018-05-25T09:38:20.922Z,28.41
2018-05-25T09:40:46.943Z,28.78
2018-05-25T09:43:13.024Z,28.56
2018-05-25T09:45:38.775Z,28.93
2018-05-25T09:48:08.888Z,28.93
2018-05-25T09:50:34.807Z,28.19
2018-05-25T09:53:00.718Z,28.58
2018-05-25T09:55:26.791Z,28.97
2018-05-25T09:57:56.742Z,29.57
2018-05-25T10:00:24.666Z,29.88
2018-05-25T10:02:50.792Z,28.32
2018-05-25T10:05:16.735Z,28.16
2018-05-25T10:07:42.636Z,27.82
2018-05-25T10:10:08.604Z,27.94
2018-05-25T10:12:41.750Z,28.79
2018-05-25T10:15:07.692Z,28.91
2018-05-25T10:17:34.415Z,29.93
2018-05-25T10:20:00.364Z,29.96
2018-05-25T10:22:26.592Z,29.03
2018-05-25T10:24:52.885Z,29.43
2018-05-25T10:27:18.810Z,29.56
2018-05-25T10:29:45.511Z,29.44
2018-05-25T10:32:12.361Z,30.61
2018-05-25T10:34:38.991Z,30.81
2018-05-25T10:37:05.627Z,31.07
2018-05-25T10:39:31.764Z,29.75
2018-05-25T10:41:57.850Z,29.16
2018-05-25T10:44:23.885Z,28.63
2018-05-25T10:46:49.948Z,29.93
2018-05-25T10:49:15.876Z,31.00
2018-05-25T10:51:41.748Z,30.85
2018-05-25T10:54:08.769Z,30.46
2018-05-25T10:56:34.674Z,30.78
2018-05-25T10:59:00.685Z,30.01
2018-05-25T11:01:26.715Z,31.13
2018-05-25T11:03:52.786Z,31.84
2018-05-25T11:06:18.691Z,33.13
2018-05-25T11:08:44.705Z,31.19
2018-05-25T11:11:10.590Z,30.51
2018-05-25T11:13:36.582Z,30.33
2018-05-25T11:16:02.507Z,31.28
2018-05-25T11:18:28.447Z,32.12
2018-05-25T11:20:54.396Z,32.13
2018-05-25T11:23:20.593Z,31.01
2018-05-25T11:25:46.494Z,31.08
2018-05-25T11:28:12.379Z,31.52
2018-05-25T11:30:38.290Z,31.96
2018-05-25T11:33:04.267Z,31.25
2018-05-25T11:35:30.155Z,31.93
2018-05-25T11:37:56.263Z,32.12
2018-05-25T11:40:22.328Z,33.33
2018-05-25T11:42:48.244Z,33.46
2018-05-25T11:45:14.172Z,34.09
2018-05-25T11:47:41.091Z,31.73
2018-05-25T11:50:06.972Z,31.65
2018-05-25T11:52:32.913Z,32.34
2018-05-25T11:54:58.907Z,32.14
2018-05-25T11:57:24.913Z,31.56
2018-05-25T11:59:51.162Z,31.89
2018-05-25T12:02:17.072Z,33.03
2018-05-25T12:04:43.160Z,33.35
2018-05-25T12:07:09.139Z,33.22
2018-05-25T12:09:35.106Z,34.86
2018-05-25T12:12:03.184Z,33.38
2018-05-25T12:14:29.256Z,31.18
2018-05-25T12:16:55.232Z,29.52
2018-05-25T12:19:22.291Z,29.90
2018-05-25T12:21:48.275Z,29.23
2018-05-25T12:24:14.139Z,29.35
2018-05-25T12:26:40.043Z,29.86
2018-05-25T12:29:06.004Z,29.21
2018-05-25T12:31:41.757Z,29.86
2018-05-25T12:34:07.801Z,29.79
2018-05-25T12:36:34.081Z,30.74
2018-05-25T12:39:00.070Z,31.01
2018-05-25T12:41:26.173Z,29.48
2018-05-25T12:43:52.234Z,29.98
2018-05-25T12:46:18.156Z,28.96
2018-05-25T12:48:44.367Z,29.88
2018-05-25T12:51:12.353Z,30.20
2018-05-25T12:53:38.583Z,30.14
2018-05-25T12:56:04.507Z,29.28
2018-05-25T12:58:30.444Z,29.16
2018-05-25T13:00:56.404Z,28.59
2018-05-25T13:03:22.697Z,28.51
2018-05-25T13:05:50.154Z,28.36
2018-05-25T13:08:16.096Z,28.63
2018-05-25T13:10:42.078Z,28.88
2018-05-25T13:13:09.935Z,28.74
2018-05-25T13:15:40.712Z,28.81
2018-05-25T13:18:06.937Z,28.92
2018-05-25T13:20:32.928Z,28.31
2018-05-25T13:22:58.966Z,28.65
2018-05-25T13:25:25.007Z,28.20
2018-05-25T13:27:51.093Z,28.00
2018-05-25T13:30:17.217Z,28.01
2018-05-25T13:32:45.532Z,27.97
2018-05-25T13:35:11.496Z,28.59
2018-05-25T13:37:41.421Z,29.01
2018-05-25T13:40:11.175Z,29.46
2018-05-25T13:42:37.098Z,30.13
2018-05-25T13:45:03.031Z,30.52
2018-05-25T13:47:29.062Z,29.85
2018-05-25T13:49:55.128Z,29.00
2018-05-25T13:52:21.629Z,28.40
2018-05-25T13:54:47.645Z,27.76
2018-05-25T13:57:15.834Z,27.51
2018-05-25T13:59:41.724Z,27.42
2018-05-25T14:02:07.667Z,27.24
2018-05-25T14:04:33.537Z,27.28
2018-05-25T14:06:59.535Z,26.99
2018-05-25T14:09:25.513Z,27.61
2018-05-25T14:11:51.766Z,28.10
2018-05-25T14:14:18.229Z,28.98
2018-05-25T14:16:44.899Z,28.97
2018-05-25T14:19:10.887Z,29.26
2018-05-25T14:21:37.109Z,28.84
2018-05-25T14:24:06.283Z,28.34
2018-05-25T14:26:32.568Z,28.38
2018-05-25T14:28:58.578Z,29.21
2018-05-25T14:31:24.664Z,29.39
2018-05-25T14:33:52.150Z,29.84
2018-05-25T14:36:18.294Z,30.26
2018-05-25T14:38:44.887Z,29.72
2018-05-25T14:41:11.019Z,29.88
2018-05-25T14:43:38.014Z,29.43
2018-05-25T14:46:04.039Z,28.90
2018-05-25T14:48:30.269Z,28.62
2018-05-25T14:50:56.353Z,29.19
2018-05-25T14:53:23.163Z,29.79
2018-05-25T14:55:49.446Z,30.12
2018-05-25T14:58:15.456Z,30.50
2018-05-25T15:00:41.404Z,31.09
2018-05-25T15:03:07.320Z,31.94
2018-05-25T15:05:33.339Z,33.84
2018-05-25T15:07:59.491Z,36.50
2018-05-25T15:10:25.521Z,38.10
2018-05-25T15:12:51.801Z,39.34
2018-05-25T15:15:17.775Z,41.59
2018-05-25T15:17:43.795Z,41.99
2018-05-25T15:20:09.914Z,43.19
2018-05-25T15:22:35.918Z,43.13
2018-05-25T15:25:02.299Z,44.01
2018-05-25T15:27:28.346Z,43.22
2018-05-25T15:29:54.536Z,42.29
2018-05-25T15:32:20.583Z,40.46
2018-05-25T15:34:46.810Z,39.79
2018-05-25T15:37:13.940Z,41.00
2018-05-25T15:39:41.000Z,40.75
2018-05-25T15:42:06.905Z,39.65
2018-05-25T15:44:32.847Z,40.61
2018-05-25T15:46:59.110Z,40.80
2018-05-25T15:49:26.274Z,39.04
2018-05-25T15:51:52.586Z,35.50
2018-05-25T15:54:18.517Z,33.96
2018-05-25T15:56:44.630Z,33.39
2018-05-25T15:59:13.404Z,32.29
2018-05-25T16:01:39.440Z,31.67
2018-05-25T16:04:05.332Z,30.70
2018-05-25T16:06:31.348Z,30.91
2018-05-25T16:08:58.449Z,29.47
2018-05-25T16:11:24.553Z,29.85
2018-05-25T16:13:50.479Z,29.70
2018-05-25T16:16:16.921Z,29.26
2018-05-25T16:18:46.456Z,29.45
2018-05-25T16:21:12.799Z,29.48
2018-05-25T16:23:38.913Z,29.04
2018-05-25T16:26:05.256Z,29.19
2018-05-25T16:28:31.372Z,29.05
2018-05-25T16:30:57.256Z,29.21
2018-05-25T16:33:23.192Z,28.90
2018-05-25T16:35:49.117Z,28.67
2018-05-25T16:38:15.029Z,28.32
2018-05-25T16:40:40.992Z,28.03
2018-05-25T16:43:07.227Z,28.15
2018-05-25T16:45:33.244Z,28.02
2018-05-25T16:47:59.128Z,28.03
2018-05-25T16:50:25.052Z,27.72
2018-05-25T16:52:50.979Z,27.75
2018-05-25T16:55:16.822Z,27.58
2018-05-25T16:57:42.951Z,27.28
2018-05-25T17:00:10.263Z,27.41
2018-05-25T17:02:37.865Z,26.98
2018-05-25T17:05:04.642Z,26.61
2018-05-25T17:07:31.977Z,26.68
2018-05-25T17:09:57.933Z,26.70
2018-05-25T17:12:23.900Z,26.46
2018-05-25T17:14:49.756Z,26.12
2018-05-25T17:17:15.659Z,26.19
2018-05-25T17:19:42.182Z,26.26
2018-05-25T17:22:08.561Z,26.01
2018-05-25T17:24:34.968Z,26.00
2018-05-25T17:27:01.024Z,26.08
2018-05-25T17:29:28.959Z,25.96
2018-05-25T17:31:57.713Z,25.81
2018-05-25T17:34:23.788Z,25.54
2018-05-25T17:36:49.687Z,25.37
2018-05-25T17:39:15.577Z,25.36
2018-05-25T17:41:41.772Z,25.23
2018-05-25T17:44:08.034Z,25.19
2018-05-25T17:46:34.244Z,24.97
2018-05-25T17:49:00.520Z,24.96
2018-05-25T17:51:26.404Z,24.75
2018-05-25T17:53:52.293Z,24.74
2018-05-25T17:56:22.679Z,24.66
2018-05-25T17:58:48.569Z,24.44
2018-05-25T18:01:14.511Z,24.48
2018-05-25T18:03:40.642Z,24.38
2018-05-25T18:06:06.718Z,24.39
2018-05-25T18:08:32.760Z,24.25
2018-05-25T18:10:58.682Z,24.19
2018-05-25T18:13:24.573Z,24.12
2018-05-25T18:15:50.457Z,23.90
2018-05-25T18:18:16.402Z,23.82
2018-05-25T18:20:42.406Z,23.76
2018-05-25T18:23:08.455Z,23.59
2018-05-25T18:25:34.557Z,23.51
2018-05-25T18:28:00.436Z,23.43
2018-05-25T18:30:26.340Z,23.40
2018-05-25T18:32:52.298Z,23.22
2018-05-25T18:35:18.232Z,23.06
2018-05-25T18:37:46.156Z,22.91
2018-05-25T18:40:12.180Z,22.92
2018-05-25T18:42:38.319Z,22.78
2018-05-25T18:45:04.544Z,22.64
2018-05-25T18:47:30.511Z,22.42
2018-05-25T18:49:56.399Z,22.31
2018-05-25T18:52:22.303Z,22.23
2018-05-25T18:54:48.222Z,22.17
2018-05-25T18:57:14.196Z,22.11
2018-05-25T18:59:40.129Z,22.03
2018-05-25T19:02:06.390Z,21.97
2018-05-25T19:04:32.672Z,21.96
2018-05-25T19:06:58.584Z,21.83
2018-05-25T19:09:24.622Z,21.67
2018-05-25T19:11:50.527Z,21.69
2018-05-25T19:14:16.431Z,21.62
2018-05-25T19:16:42.474Z,21.50
2018-05-25T19:19:08.612Z,21.50
2018-05-25T19:21:34.699Z,21.40
2018-05-25T19:24:00.664Z,21.40
2018-05-25T19:26:26.564Z,21.28
2018-05-25T19:28:53.499Z,21.24
2018-05-25T19:31:19.612Z,21.12
2018-05-25T19:33:46.229Z,21.09
2018-05-25T19:36:12.501Z,20.97
2018-05-25T19:38:38.507Z,20.88
2018-05-25T19:41:04.352Z,20.92
2018-05-25T19:43:30.228Z,20.75
2018-05-25T19:45:56.326Z,20.63
2018-05-25T19:48:22.224Z,20.67
2018-05-25T19:50:48.270Z,20.53
2018-05-25T19:53:14.459Z,20.43
2018-05-25T19:55:40.345Z,20.38
2018-05-25T19:58:06.310Z,20.28
2018-05-25T20:00:32.256Z,20.21
2018-05-25T20:02:58.132Z,20.12
2018-05-25T20:05:27.207Z,19.97
2018-05-25T20:07:53.579Z,19.97
2018-05-25T20:10:19.667Z,19.89
2018-05-25T20:12:45.723Z,19.88
2018-05-25T20:15:11.852Z,19.67
2018-05-25T20:17:37.742Z,19.71
2018-05-25T20:20:03.629Z,19.68
2018-05-25T20:22:30.623Z,19.63
2018-05-25T20:24:56.509Z,19.59
2018-05-25T20:27:22.868Z,19.43
2018-05-25T20:29:48.829Z,19.36
2018-05-25T20:32:14.972Z,19.30
2018-05-25T20:34:40.967Z,19.24
2018-05-25T20:37:06.904Z,19.20
2018-05-25T20:39:32.782Z,19.11
2018-05-25T20:41:58.891Z,19.02
2018-05-25T20:44:25.130Z,18.94
2018-05-25T20:46:51.950Z,18.85
2018-05-25T20:49:17.905Z,18.87
2018-05-25T20:51:43.972Z,18.82
2018-05-25T20:54:10.069Z,18.74
2018-05-25T20:56:35.955Z,18.70
2018-05-25T20:59:02.090Z,18.63
2018-05-25T21:01:28.079Z,18.56
2018-05-25T21:03:53.951Z,18.54
2018-05-25T21:06:19.967Z,18.47
2018-05-25T21:08:46.113Z,18.47
2018-05-25T21:11:12.512Z,18.36
2018-05-25T21:13:38.587Z,18.40
2018-05-25T21:16:04.846Z,18.32
2018-05-25T21:18:30.763Z,18.27
2018-05-25T21:20:56.710Z,18.20
2018-05-25T21:23:22.708Z,18.10
2018-05-25T21:25:48.718Z,18.00
2018-05-25T21:28:15.006Z,17.89
2018-05-25T21:30:41.047Z,17.84
2018-05-25T21:33:06.956Z,17.76
2018-05-25T21:35:32.910Z,17.70
2018-05-25T21:37:58.811Z,17.58
2018-05-25T21:40:24.690Z,17.55
2018-05-25T21:42:50.741Z,17.49
2018-05-25T21:45:17.167Z,17.40
2018-05-25T21:47:43.155Z,17.36
2018-05-25T21:50:09.123Z,17.28
2018-05-25T21:52:35.282Z,17.19
2018-05-25T21:55:01.531Z,17.12
2018-05-25T21:57:27.455Z,17.03
2018-05-25T21:59:53.447Z,16.96
2018-05-25T22:02:19.324Z,16.97
2018-05-25T22:04:45.547Z,17.04
2018-05-25T22:07:11.481Z,17.07
2018-05-25T22:09:37.524Z,17.11
2018-05-25T22:12:03.471Z,17.11
2018-05-25T22:14:29.358Z,17.08
2018-05-25T22:16:55.278Z,17.10
2018-05-25T22:19:21.245Z,17.11
2018-05-25T22:21:47.165Z,17.05
2018-05-25T22:24:13.086Z,16.99
2018-05-25T22:26:39.138Z,16.94
2018-05-25T22:29:05.112Z,16.88
2018-05-25T22:31:31.063Z,16.84
2018-05-25T22:33:57.054Z,16.78
2018-05-25T22:36:22.935Z,16.77
2018-05-25T22:38:48.960Z,16.67
2018-05-25T22:41:14.896Z,16.61
2018-05-25T22:43:53.058Z,16.57
2018-05-25T22:46:31.336Z,16.51
2018-05-25T22:49:09.785Z,16.46
2018-05-25T22:51:48.107Z,16.44
2018-05-25T22:54:40.851Z,16.35
2018-05-25T22:57:06.852Z,16.28
2018-05-25T22:59:32.823Z,16.22
2018-05-25T23:01:58.692Z,16.12
2018-05-25T23:04:24.654Z,16.08
2018-05-25T23:06:50.571Z,16.01
2018-05-25T23:09:16.792Z,15.94
2018-05-25T23:11:42.825Z,15.92
2018-05-25T23:14:08.707Z,15.84
2018-05-25T23:16:34.594Z,15.78
2018-05-25T23:19:00.556Z,15.70
2018-05-25T23:21:26.492Z,15.61
2018-05-25T23:23:52.448Z,15.59
2018-05-25T23:26:18.443Z,15.55
2018-05-25T23:28:44.308Z,15.49
2018-05-25T23:31:10.192Z,15.47
2018-05-25T23:33:36.186Z,15.44
2018-05-25T23:36:02.149Z,15.36
2018-05-25T23:38:28.031Z,15.25
2018-05-25T23:40:54.006Z,15.17
2018-05-25T23:43:19.895Z,15.13
2018-05-25T23:45:45.850Z,15.14
2018-05-25T23:48:11.904Z,15.14
2018-05-25T23:50:37.827Z,15.12
2018-05-25T23:53:03.704Z,15.10
2018-05-25T23:55:29.620Z,15.04
2018-05-25T23:57:55.582Z,15.01
